Flight Track Log - Related Links

Times and Time Zones

All times are in EDT time to prevent confusion due to time zone crossing. See the N6ZQ flight status page for this flight to view local times or setup timezone preferences in your user account.

Time Position Orientation Groundspeed Altitude Reporting Facility
EDT Latitude Longitude Course Direction KTS MPH feet Rate Location/Type
Sat 07:01:27 AM 38.3500 -77.3833 123° Southeast 152 175 1,800  Level Potomac TRACON
Sat 07:02:21 AM 38.3333 -77.3500 123° Southeast 158 182 3,000 1,053 Climbing Potomac TRACON
Sat 07:03:21 AM 38.3333 -77.2833 90° East 173 199 3,800 900 Climbing Potomac TRACON
Sat 07:04:21 AM 38.3333 -77.2167 90° East 195 224 4,800 600 Climbing Potomac TRACON
Sat 07:05:21 AM 38.3333 -77.1500 90° East 192 221 5,000 100 Climbing Potomac TRACON
Sat 07:06:21 AM 38.3167 -77.0833 108° East 192 221 5,000  Level Potomac TRACON
Sat 07:07:21 AM 38.3167 -77.0167 90° East 187 215 5,000 300 Level Potomac TRACON
Sat 07:08:21 AM 38.3167 -76.9500 90° East 194 223 5,600 809 Climbing Potomac TRACON
Sat 07:09:42 AM 38.3122 -76.8725 94° East 197 227 6,900 1,021 Climbing Washington Center
Sat 07:10:42 AM 38.3089 -76.8117 94° East 185 213 8,000 992 Climbing Washington Center
Sat 07:11:43 AM 38.3053 -76.7481 94° East 170 196 8,900 857 Climbing Washington Center
Sat 07:12:41 AM 38.3017 -76.6978 95° East 170 196 9,700 850 Climbing Washington Center
Sat 07:13:43 AM 38.2981 -76.6236 94° East 170 196 10,600 634 Climbing Washington Center
Sat 07:14:44 AM 38.2944 -76.5572 94° East 175 201 11,000 202 Climbing Washington Center
Sat 07:15:42 AM 38.3053 -76.4939 78° East 187 215 11,000  Level Washington Center
Sat 07:16:44 AM 38.3475 -76.4361 47° Northeast 177 204 11,000  Level Washington Center
Sat 07:17:42 AM 38.3853 -76.3836 47° Northeast 191 220 11,000  Level Washington Center
Sat 07:18:43 AM 38.4211 -76.3258 52° Northeast 203 234 11,000  Level Washington Center
Sat 07:19:41 AM 38.4589 -76.2731 48° Northeast 203 234 11,000 -99 Level Washington Center
Sat 07:20:44 AM 38.5031 -76.2283 38° Northeast 203 234 10,800 -397 Descending Washington Center
Sat 07:21:42 AM 38.5511 -76.1836 36° Northeast 203 234 10,200 -610 Descending Washington Center
Sat 07:22:42 AM 38.5972 -76.1389 37° Northeast 221 254 9,600 -545 Descending Washington Center
Sat 07:23:43 AM 38.6456 -76.0942 36° Northeast 226 260 9,100 -300 Descending Washington Center
Sat 07:24:42 AM 38.6914 -76.0464 39° Northeast 219 252 9,000 -200 Descending Washington Center
Sat 07:25:43 AM 38.7375 -76.0042 36° Northeast 212 244 8,700 -446 Descending Washington Center
Sat 07:26:43 AM 38.7836 -75.9592 37° Northeast 207 238 8,100 -350 Descending Washington Center
Sat 07:27:43 AM 38.8169 -75.9247 39° Northeast 202 232 8,000 -50 Descending Washington Center
Sat 07:28:44 AM 38.8692 -75.8742 37° Northeast 202 232 8,000  Level Washington Center
Sat 07:29:43 AM 38.9089 -75.8344 38° Northeast 191 220 8,000 -151 Level Washington Center
Sat 07:30:43 AM 38.9506 -75.7944 37° Northeast 186 214 7,700 -397 Descending Washington Center
Sat 07:31:44 AM 38.9944 -75.7519 37° Northeast 186 214 7,200 -555 Descending Washington Center
Sat 07:32:42 AM 39.0403 -75.7119 34° Northeast 191 220 6,600 -550 Descending Washington Center
Sat 07:33:44 AM 39.0967 -75.7039 North 185 213 6,100 -500 Descending Washington Center
Sat 07:34:42 AM 39.1531 -75.6986 North 191 220 5,600 -369 Descending Washington Center
Sat 07:36:43 AM 39.2667 -75.6833 North 177 204 5,000 -199 Descending Philadelphia TRACON
Sat 07:37:43 AM 39.3000 -75.6667 21° North 171 197 5,000  Level Philadelphia TRACON
Sat 07:38:43 AM 39.3500 -75.6500 14° North 169 194 5,000  Level Philadelphia TRACON
Sat 07:40:06 AM 39.4167 -75.6333 11° North 164 189 5,000  Level Philadelphia TRACON
Sat 07:40:55 AM 39.4500 -75.6333 360° North 167 192 5,000  Level Philadelphia TRACON
Sat 07:41:55 AM 39.5000 -75.6167 14° North 170 196 5,000  Level Philadelphia TRACON
Sat 07:42:55 AM 39.5500 -75.6000 14° North 171 197 5,000  Level Philadelphia TRACON
Sat 07:43:55 AM 39.6000 -75.6000 360° North 173 199 5,000  Level Philadelphia TRACON
Sat 07:44:55 AM 39.6500 -75.5833 14° North 174 200 5,000  Level Philadelphia TRACON
Sat 07:45:55 AM 39.6833 -75.5667 21° North 172 198 5,000  Level Philadelphia TRACON
Sat 07:46:55 AM 39.7333 -75.5500 14° North 174 200 5,000  Level Philadelphia TRACON
Sat 07:47:49 AM 39.7833 -75.5500 360° North 174 200 5,000  Level Philadelphia TRACON
Sat 07:48:49 AM 39.8167 -75.5500 360° North 183 211 5,000  Level Philadelphia TRACON
Sat 07:49:55 AM 39.8667 -75.5667 346° North 174 200 5,000 -95 Level Philadelphia TRACON
Sat 07:50:55 AM 39.9167 -75.5500 14° North 182 209 4,800 -400 Descending Philadelphia TRACON
Sat 07:51:55 AM 39.9667 -75.5167 27° Northeast 191 220 4,200 -400 Descending Philadelphia TRACON
Sat 07:52:55 AM 40.0167 -75.5000 14° North 184 212 4,000 -105 Descending Philadelphia TRACON
Sat 07:53:49 AM 40.0500 -75.4833 21° North 172 198 4,000  Level Philadelphia TRACON
Sat 07:54:49 AM 40.0833 -75.4333 49° Northeast 176 203 4,000  Level Philadelphia TRACON
Sat 07:55:49 AM 40.1167 -75.3833 49° Northeast 171 197 4,000  Level Philadelphia TRACON
Sat 07:56:49 AM 40.1500 -75.3500 37° Northeast 170 196 4,000  Level Philadelphia TRACON
Sat 07:57:49 AM 40.1833 -75.3000 49° Northeast 170 196 4,000  Level Philadelphia TRACON
Sat 07:58:49 AM 40.2167 -75.2500 49° Northeast 173 199 4,000  Level Philadelphia TRACON
Sat 07:59:49 AM 40.2500 -75.2167 37° Northeast 172 198 4,000  Level Philadelphia TRACON
Sat 08:02:10 AM 40.3333 -75.1000 47° Northeast 176 203 4,000  Level New York TRACON
Sat 08:03:16 AM 40.3667 -75.0500 49° Northeast 172 198 4,000  Level New York TRACON
Sat 08:04:10 AM 40.4000 -75.0167 37° Northeast 175 201 4,000  Level New York TRACON
Sat 08:05:04 AM 40.4167 -74.9667 66° East 174 200 4,000  Level New York TRACON
Sat 08:06:10 AM 40.4500 -74.9167 49° Northeast 172 198 4,000  Level New York TRACON
Sat 08:07:04 AM 40.4833 -74.8667 49° Northeast 174 200 4,000  Level New York TRACON
Sat 08:08:10 AM 40.5167 -74.8167 49° Northeast 172 198 4,000  Level New York TRACON
Sat 08:09:04 AM 40.5500 -74.7833 37° Northeast 175 201 4,000  Level New York TRACON
Sat 08:09:58 AM 40.5667 -74.7333 66° East 172 198 4,000  Level New York TRACON
Sat 08:10:58 AM 40.6000 -74.6833 49° Northeast 172 198 4,000 -200 Level New York TRACON
Sat 08:11:58 AM 40.6333 -74.6333 49° Northeast 186 214 3,600 -474 Descending New York TRACON
Sat 08:12:52 AM 40.6667 -74.6000 37° Northeast 193 222 3,100 -316 Descending New York TRACON
Sat 08:13:52 AM 40.7000 -74.5333 57° Northeast 183 211 3,000 -53 Descending New York TRACON
Sat 08:14:46 AM 40.7333 -74.5000 37° Northeast 174 200 3,000  Level New York TRACON
Sat 08:15:46 AM 40.7667 -74.4500 49° Northeast 172 198 3,000 -50 Level New York TRACON
Sat 08:16:46 AM 40.8000 -74.4000 49° Northeast 172 198 2,900 -579 Descending New York TRACON
Sat 08:17:40 AM 40.8167 -74.3667 57° Northeast 182 209 1,900 -833 Descending New York TRACON
Sat 08:18:34 AM 40.8500 -74.3167 49° Northeast 151 174 1,400 -263 Descending New York TRACON
Sat 08:19:34 AM 40.8833 -74.3000 21° North 127 146 1,400  Level New York TRACON
Sat 08:20:40 AM 40.9167 -74.2833 21° North 115 132 1,400 -100 Level New York TRACON
Sat 08:21:34 AM 40.9000 -74.2667 143° Southeast 136 157 1,200 -222 Descending New York TRACON
Sat 08:23:00 AM 40.8667 -74.2667 180° South  Level FlightAware Approximate
Sat 08:30:00 AM 40.8752 -74.2814 180° South  Level Estimated
Sat 08:31:00 AM 40.8752 -74.2814 180° South  Level Estimated
Sat 08:32:00 AM 40.8752 -74.2814 180° South  Level Estimated

Login

Don't have an account? Register now (free) for customized features, flight alerts, and more!